createdAt,value
2023-03-25T00:00:16.906Z,98589.53
2023-03-25T00:02:47.608Z,98599.78
2023-03-25T00:05:16.376Z,98600.19
2023-03-25T00:07:45.995Z,98606.13
2023-03-25T00:10:13.920Z,98611.25
2023-03-25T00:12:42.922Z,98617.19
2023-03-25T00:15:11.530Z,98633.31
2023-03-25T00:17:38.587Z,98627.41
2023-03-25T00:20:09.900Z,98635.66
2023-03-25T00:22:40.996Z,98630.94
2023-03-25T00:25:09.589Z,98643.94
2023-03-25T00:27:36.810Z,98647.09
2023-03-25T00:30:04.454Z,98646.31
2023-03-25T00:32:31.208Z,98646.31
2023-03-25T00:34:57.896Z,98658.91
2023-03-25T00:37:25.686Z,98660.88
2023-03-25T00:39:52.323Z,98662.47
2023-03-25T00:42:26.394Z,98659.31
2023-03-25T00:44:53.970Z,98663.25
2023-03-25T00:47:21.995Z,98667.16
2023-03-25T00:49:50.027Z,98675.06
2023-03-25T00:52:16.897Z,98667.97
2023-03-25T00:54:45.870Z,98666.38
2023-03-25T00:57:12.842Z,98678.53
2023-03-25T00:59:39.622Z,98685.22
2023-03-25T01:02:07.180Z,98676.16
2023-03-25T01:04:35.372Z,98676.53
2023-03-25T01:07:03.618Z,98688.34
2023-03-25T01:09:31.302Z,98695.44
2023-03-25T01:11:58.127Z,98704.13
2023-03-25T01:14:27.404Z,98698.63
2023-03-25T01:16:54.936Z,98699.81
2023-03-25T01:19:22.868Z,98700.97
2023-03-25T01:21:49.671Z,98706.88
2023-03-25T01:24:16.760Z,98707.63
2023-03-25T01:26:45.925Z,98703.28
2023-03-25T01:29:14.943Z,98705.22
2023-03-25T01:31:41.745Z,98710.25
2023-03-25T01:34:08.780Z,98703.88
2023-03-25T01:36:41.608Z,98727.81
2023-03-25T01:39:09.143Z,98713.16
2023-03-25T01:41:49.036Z,98723.34
2023-03-25T01:44:19.398Z,98729.97
2023-03-25T01:46:53.283Z,98727.53
2023-03-25T01:49:30.269Z,98731.06
2023-03-25T01:52:02.680Z,98734.53
2023-03-25T01:54:29.516Z,98741.13
2023-03-25T01:56:56.559Z,98749.38
2023-03-25T01:59:27.197Z,98750.09
2023-03-25T02:01:56.114Z,98759.91
2023-03-25T02:05:03.979Z,98769.31
2023-03-25T02:07:37.917Z,98763.78
2023-03-25T02:10:07.755Z,98766.53
2023-03-25T02:12:34.581Z,98785.00
2023-03-25T02:15:04.477Z,98782.72
2023-03-25T02:18:00.332Z,98788.22
2023-03-25T02:21:08.332Z,98790.22
2023-03-25T02:23:48.104Z,98798.53
2023-03-25T02:26:32.922Z,98797.00
2023-03-25T02:29:55.196Z,98802.50
2023-03-25T02:32:40.408Z,98806.84
2023-03-25T02:35:42.253Z,98819.81
2023-03-25T02:39:04.581Z,98820.59
2023-03-25T02:41:55.999Z,98833.97
2023-03-25T02:44:36.399Z,98845.78
2023-03-25T02:47:09.075Z,98842.63
2023-03-25T02:49:41.018Z,98852.75
2023-03-25T02:52:39.845Z,98852.72
2023-03-25T02:55:10.803Z,98861.72
2023-03-25T02:57:46.599Z,98856.16
2023-03-25T03:03:04.323Z,98878.84
2023-03-25T03:05:36.053Z,98887.84
2023-03-25T03:08:27.608Z,98887.75
2023-03-25T03:11:15.684Z,98889.28
2023-03-25T03:14:12.008Z,98886.47
2023-03-25T03:16:58.584Z,98897.03
2023-03-25T03:19:46.686Z,98905.69
2023-03-25T03:22:45.758Z,98905.59
2023-03-25T03:25:28.349Z,98912.63
2023-03-25T03:28:38.997Z,98921.25
2023-03-25T03:31:48.234Z,98922.41
2023-03-25T03:34:30.789Z,98926.69
2023-03-25T03:37:00.779Z,98928.22
2023-03-25T03:39:36.481Z,98930.53
2023-03-25T03:42:14.201Z,98935.97
2023-03-25T03:44:44.464Z,98932.41
2023-03-25T03:47:16.471Z,98942.97
2023-03-25T03:49:48.033Z,98952.38
2023-03-25T03:52:21.606Z,98960.19
2023-03-25T03:54:54.851Z,98969.63
2023-03-25T03:57:30.422Z,98973.53
2023-03-25T04:00:02.612Z,98985.66
2023-03-25T04:02:34.586Z,98978.94
2023-03-25T04:05:01.762Z,98984.81
2023-03-25T04:07:42.390Z,98985.16
2023-03-25T04:10:15.129Z,98977.28
2023-03-25T04:12:50.419Z,98992.16
2023-03-25T04:15:17.612Z,98984.63
2023-03-25T04:17:44.673Z,98995.22
2023-03-25T04:20:15.702Z,98995.22
2023-03-25T04:22:45.679Z,98997.53
2023-03-25T04:25:14.127Z,99012.41
2023-03-25T04:27:41.202Z,99012.78
2023-03-25T04:30:09.248Z,99012.00
2023-03-25T04:32:36.038Z,99011.19
2023-03-25T04:35:03.571Z,99023.34
2023-03-25T04:37:30.307Z,99025.66
2023-03-25T04:40:00.237Z,99027.97
2023-03-25T04:42:32.875Z,99034.97
2023-03-25T04:45:00.079Z,99040.03
2023-03-25T04:47:27.750Z,99043.94
2023-03-25T04:49:54.499Z,99043.50
2023-03-25T04:52:21.303Z,99058.84
2023-03-25T04:54:48.030Z,99063.88
2023-03-25T04:57:15.399Z,99064.63
2023-03-25T04:59:42.216Z,99066.56
2023-03-25T05:02:13.484Z,99071.63
2023-03-25T05:04:47.830Z,99075.16
2023-03-25T05:07:16.604Z,99081.81
2023-03-25T05:09:43.448Z,99086.88
2023-03-25T05:12:11.519Z,99084.91
2023-03-25T05:14:38.375Z,99093.25
2023-03-25T05:17:05.041Z,99090.94
2023-03-25T05:19:35.156Z,99092.97
2023-03-25T05:22:03.142Z,99091.47
2023-03-25T05:24:30.586Z,99093.13
2023-03-25T05:26:57.236Z,99105.72
2023-03-25T05:29:23.997Z,99110.50
2023-03-25T05:31:50.696Z,99103.88
2023-03-25T05:34:17.691Z,99113.69
2023-03-25T05:36:44.688Z,99115.31
2023-03-25T05:39:11.824Z,99117.69
2023-03-25T05:41:41.750Z,99123.19
2023-03-25T05:44:10.231Z,99131.44
2023-03-25T05:46:37.013Z,99129.47
2023-03-25T05:49:03.866Z,99131.09
2023-03-25T05:51:34.233Z,99139.78
2023-03-25T05:54:01.847Z,99136.66
2023-03-25T05:56:29.462Z,99141.34
2023-03-25T05:58:57.731Z,99150.75
2023-03-25T06:01:33.715Z,99153.09
2023-03-25T06:04:02.642Z,99161.66
2023-03-25T06:06:30.503Z,99159.28
2023-03-25T06:08:57.813Z,99163.19
2023-03-25T06:11:24.515Z,99162.75
2023-03-25T06:13:51.255Z,99176.06
2023-03-25T06:16:20.381Z,99174.44
2023-03-25T06:18:50.856Z,99178.81
2023-03-25T06:21:19.839Z,99175.59
2023-03-25T06:23:49.514Z,99186.56
2023-03-25T06:26:20.106Z,99190.50
2023-03-25T06:28:47.130Z,99194.13
2023-03-25T06:31:16.873Z,99206.44
2023-03-25T06:33:44.442Z,99205.03
2023-03-25T06:36:12.786Z,99208.31
2023-03-25T06:38:40.036Z,99213.19
2023-03-25T06:41:07.308Z,99216.47
2023-03-25T06:43:34.801Z,99222.91
2023-03-25T06:46:01.546Z,99217.94
2023-03-25T06:48:28.333Z,99235.34
2023-03-25T06:50:55.480Z,99234.28
2023-03-25T06:53:22.390Z,99239.94
2023-03-25T06:55:50.461Z,99248.38
2023-03-25T06:58:18.426Z,99255.16
2023-03-25T07:00:46.930Z,99268.66
2023-03-25T07:03:13.721Z,99276.63
2023-03-25T07:05:42.493Z,99277.16
2023-03-25T07:08:09.288Z,99280.00
2023-03-25T07:10:35.933Z,99289.56
2023-03-25T07:13:02.672Z,99289.72
2023-03-25T07:15:29.332Z,99283.50
2023-03-25T07:17:56.159Z,99306.41
2023-03-25T07:20:23.019Z,99293.84
2023-03-25T07:22:49.716Z,99296.28
2023-03-25T07:25:16.434Z,99301.06
2023-03-25T07:27:43.106Z,99305.06
2023-03-25T07:30:10.256Z,99298.38
2023-03-25T07:32:37.001Z,99291.72
2023-03-25T07:35:04.403Z,99296.50
2023-03-25T07:37:31.118Z,99306.72
2023-03-25T07:39:57.801Z,99304.34
2023-03-25T07:42:24.473Z,99303.59
2023-03-25T07:44:52.054Z,99310.63
2023-03-25T07:47:18.719Z,99323.66
2023-03-25T07:49:47.851Z,99321.09
2023-03-25T07:52:14.508Z,99333.91
2023-03-25T07:54:41.149Z,99346.78
2023-03-25T07:57:07.930Z,99345.03
2023-03-25T07:59:34.753Z,99347.50
2023-03-25T08:02:01.540Z,99345.59
2023-03-25T08:04:28.322Z,99361.44
2023-03-25T08:06:55.121Z,99352.81
2023-03-25T08:09:21.835Z,99354.50
2023-03-25T08:11:49.081Z,99353.78
2023-03-25T08:14:15.766Z,99364.72
2023-03-25T08:16:42.501Z,99363.09
2023-03-25T08:19:09.197Z,99360.00
2023-03-25T08:21:35.824Z,99368.78
2023-03-25T08:24:04.844Z,99382.34
2023-03-25T08:26:35.394Z,99382.50
2023-03-25T08:29:02.836Z,99389.75
2023-03-25T08:31:32.122Z,99389.78
2023-03-25T08:34:00.581Z,99398.16
2023-03-25T08:36:27.830Z,99401.03
2023-03-25T08:38:54.927Z,99405.97
2023-03-25T08:41:21.662Z,99409.97
2023-03-25T08:43:49.298Z,99413.28
2023-03-25T08:46:16.381Z,99424.91
2023-03-25T08:48:44.030Z,99425.81
2023-03-25T08:51:11.779Z,99430.31
2023-03-25T08:53:38.387Z,99424.16
2023-03-25T08:56:05.624Z,99440.56
2023-03-25T08:58:32.725Z,99438.75
2023-03-25T09:00:59.387Z,99453.78
2023-03-25T09:03:29.008Z,99461.66
2023-03-25T09:05:56.049Z,99460.84
2023-03-25T09:08:23.130Z,99460.91
2023-03-25T09:10:49.940Z,99459.00
2023-03-25T09:13:16.678Z,99468.97
2023-03-25T09:15:43.424Z,99470.53
2023-03-25T09:18:10.360Z,99467.69
2023-03-25T09:20:37.097Z,99485.03
2023-03-25T09:23:03.918Z,99475.94
2023-03-25T09:25:30.607Z,99489.03
2023-03-25T09:27:57.249Z,99488.13
2023-03-25T09:30:23.894Z,99496.28
2023-03-25T09:32:50.737Z,99492.44
2023-03-25T09:35:17.433Z,99493.72
2023-03-25T09:37:44.618Z,99485.56
2023-03-25T09:40:16.466Z,99492.28
2023-03-25T09:42:53.463Z,99493.16
2023-03-25T09:45:35.634Z,99495.13
2023-03-25T09:48:13.588Z,99492.53
2023-03-25T09:50:43.918Z,99500.13
2023-03-25T09:53:10.704Z,99514.84
2023-03-25T09:55:42.140Z,99489.25
2023-03-25T09:58:41.594Z,99508.16
2023-03-25T10:01:28.595Z,99507.47
2023-03-25T10:04:23.433Z,99515.91
2023-03-25T10:06:55.830Z,99507.88
2023-03-25T10:09:28.391Z,99508.59
2023-03-25T10:12:02.807Z,99515.28
2023-03-25T10:15:06.355Z,99516.25
2023-03-25T10:17:56.494Z,99522.47
2023-03-25T10:20:38.451Z,99523.16
2023-03-25T10:23:24.518Z,99525.69
2023-03-25T10:25:58.088Z,99517.22
2023-03-25T10:28:33.708Z,99534.84
2023-03-25T10:31:02.662Z,99543.53
2023-03-25T10:33:36.691Z,99544.56
2023-03-25T10:36:07.683Z,99560.16
2023-03-25T10:38:37.838Z,99563.63
2023-03-25T10:41:16.705Z,99564.09
2023-03-25T10:43:43.786Z,99571.00
2023-03-25T10:46:31.771Z,99569.69
2023-03-25T10:48:58.730Z,99574.81
2023-03-25T10:51:36.411Z,99568.63
2023-03-25T10:54:03.962Z,99575.44
2023-03-25T10:56:39.305Z,99569.44
2023-03-25T10:59:31.669Z,99596.22
2023-03-25T11:01:59.349Z,99573.06
2023-03-25T11:04:37.259Z,99563.94
2023-03-25T11:07:08.465Z,99569.50
2023-03-25T11:09:37.251Z,99568.28
2023-03-25T11:12:06.498Z,99568.25
2023-03-25T11:14:40.091Z,99565.03
2023-03-25T11:17:18.515Z,99560.25
2023-03-25T11:20:06.959Z,99564.56
2023-03-25T11:22:38.530Z,99570.06
2023-03-25T11:25:13.923Z,99575.53
2023-03-25T11:27:47.520Z,99565.19
2023-03-25T11:30:21.031Z,99566.06
2023-03-25T11:33:04.945Z,99566.91
2023-03-25T11:35:37.466Z,99566.94
2023-03-25T11:38:19.866Z,99561.34
2023-03-25T11:40:57.847Z,99564.53
2023-03-25T11:43:38.583Z,99565.34
2023-03-25T11:46:24.023Z,99567.75
2023-03-25T11:48:50.908Z,99559.06
2023-03-25T11:51:24.670Z,99556.72
2023-03-25T11:53:59.287Z,99565.41
2023-03-25T11:56:34.801Z,99572.59
2023-03-25T11:59:02.785Z,99566.59
2023-03-25T12:01:48.392Z,99566.97
2023-03-25T12:04:23.323Z,99560.66
2023-03-25T12:06:53.187Z,99564.66
2023-03-25T12:09:19.908Z,99572.59
2023-03-25T12:11:58.772Z,99566.22
2023-03-25T12:14:53.223Z,99554.22
2023-03-25T12:17:26.669Z,99562.47
2023-03-25T12:20:25.763Z,99566.78
2023-03-25T12:23:21.879Z,99565.22
2023-03-25T12:26:04.521Z,99573.56
2023-03-25T12:28:42.180Z,99562.81
2023-03-25T12:31:20.604Z,99567.63
2023-03-25T12:34:09.106Z,99565.34
2023-03-25T12:36:51.623Z,99566.91
2023-03-25T12:39:29.352Z,99564.09
2023-03-25T12:42:16.799Z,99573.16
2023-03-25T12:45:14.026Z,99563.59
2023-03-25T12:47:56.206Z,99572.31
2023-03-25T12:50:42.928Z,99573.09
2023-03-25T12:53:54.735Z,99570.22
2023-03-25T12:56:34.931Z,99572.06
2023-03-25T12:59:20.071Z,99567.19
2023-03-25T13:02:12.241Z,99564.84
2023-03-25T13:04:45.025Z,99564.59
2023-03-25T13:07:15.538Z,99562.34
2023-03-25T13:09:44.870Z,99572.84
2023-03-25T13:12:35.216Z,99564.59
2023-03-25T13:15:08.218Z,99554.34
2023-03-25T13:17:41.136Z,99559.94
2023-03-25T13:20:11.008Z,99561.53
2023-03-25T13:22:49.287Z,99561.56
2023-03-25T13:25:24.925Z,99564.72
2023-03-25T13:27:52.875Z,99558.38
2023-03-25T13:30:30.478Z,99559.09
2023-03-25T13:33:06.646Z,99568.97
2023-03-25T13:35:52.642Z,99588.66
2023-03-25T13:38:32.336Z,99581.72
2023-03-25T13:41:33.116Z,99567.09
2023-03-25T13:44:05.645Z,99574.09
2023-03-25T13:47:08.894Z,99576.00
2023-03-25T13:49:43.460Z,99562.13
2023-03-25T13:52:11.345Z,99553.16
2023-03-25T13:55:01.516Z,99553.00
2023-03-25T13:57:40.372Z,99549.22
2023-03-25T14:00:07.029Z,99544.19
2023-03-25T14:02:58.801Z,99543.94
2023-03-25T14:05:52.674Z,99540.84
2023-03-25T14:08:39.481Z,99536.47
2023-03-25T14:11:35.024Z,99532.13
2023-03-25T14:14:11.978Z,99534.50
2023-03-25T14:16:44.415Z,99544.03
2023-03-25T14:19:14.706Z,99537.69
2023-03-25T14:21:44.505Z,99546.38
2023-03-25T14:24:37.117Z,99532.47
2023-03-25T14:27:31.382Z,99537.19
2023-03-25T14:30:18.782Z,99541.91
2023-03-25T14:32:45.904Z,99544.59
2023-03-25T14:35:37.138Z,99549.19
2023-03-25T14:38:09.482Z,99545.84
2023-03-25T14:40:47.400Z,99549.72
2023-03-25T14:43:40.430Z,99544.06
2023-03-25T14:46:13.454Z,99544.06
2023-03-25T14:48:47.039Z,99555.41
2023-03-25T14:51:22.382Z,99548.94
2023-03-25T14:54:17.747Z,99537.22
2023-03-25T14:56:52.334Z,99542.06
2023-03-25T14:59:24.258Z,99540.88
2023-03-25T15:01:52.152Z,99535.31
2023-03-25T15:04:24.878Z,99535.28
2023-03-25T15:06:52.050Z,99531.72
2023-03-25T15:09:20.559Z,99530.13
2023-03-25T15:12:00.019Z,99531.75
2023-03-25T15:14:39.540Z,99530.53
2023-03-25T15:17:11.067Z,99526.56
2023-03-25T15:19:59.191Z,99524.59
2023-03-25T15:22:25.868Z,99524.19
2023-03-25T15:24:57.298Z,99519.41
2023-03-25T15:27:45.293Z,99519.41
2023-03-25T15:30:11.927Z,99520.19
2023-03-25T15:32:44.636Z,99518.59
2023-03-25T15:35:48.604Z,99518.16
2023-03-25T15:38:47.628Z,99506.63
2023-03-25T15:41:33.633Z,99505.00
2023-03-25T15:44:37.640Z,99507.34
2023-03-25T15:47:41.758Z,99510.09
2023-03-25T15:50:18.150Z,99510.53
2023-03-25T15:53:13.468Z,99494.34
2023-03-25T15:55:47.787Z,99495.56
2023-03-25T15:58:25.750Z,99499.16
2023-03-25T16:00:56.133Z,99491.59
2023-03-25T16:03:27.218Z,99491.94
2023-03-25T16:06:00.701Z,99488.34
2023-03-25T16:08:34.147Z,99474.00
2023-03-25T16:11:24.969Z,99475.16
2023-03-25T16:14:22.274Z,99479.47
2023-03-25T16:16:55.104Z,99468.31
2023-03-25T16:19:33.726Z,99465.13
2023-03-25T16:22:08.385Z,99464.34
2023-03-25T16:24:35.601Z,99459.56
2023-03-25T16:27:18.977Z,99454.00
2023-03-25T16:29:50.677Z,99449.22
2023-03-25T16:32:26.406Z,99449.63
2023-03-25T16:34:56.136Z,99449.25
2023-03-25T16:37:25.300Z,99444.16
2023-03-25T16:39:54.472Z,99435.06
2023-03-25T16:42:26.997Z,99439.09
2023-03-25T16:44:54.455Z,99446.66
2023-03-25T16:47:22.694Z,99451.84
2023-03-25T16:49:52.636Z,99448.66
2023-03-25T16:52:25.168Z,99443.09
2023-03-25T16:54:51.867Z,99434.34
2023-03-25T16:57:32.491Z,99430.78
2023-03-25T17:00:17.572Z,99424.00
2023-03-25T17:02:46.086Z,99425.13
2023-03-25T17:05:19.413Z,99427.88
2023-03-25T17:07:48.735Z,99419.91
2023-03-25T17:10:23.395Z,99417.50
2023-03-25T17:12:57.510Z,99425.44
2023-03-25T17:15:26.137Z,99425.81
2023-03-25T17:18:00.130Z,99411.13
2023-03-25T17:20:46.050Z,99415.06
2023-03-25T17:23:27.428Z,99416.59
2023-03-25T17:25:59.070Z,99418.91
2023-03-25T17:28:40.116Z,99418.03
2023-03-25T17:31:30.436Z,99424.69
2023-03-25T17:34:18.144Z,99419.47
2023-03-25T17:36:50.243Z,99416.19
2023-03-25T17:39:16.836Z,99417.72
2023-03-25T17:41:43.807Z,99416.09
2023-03-25T17:44:15.530Z,99410.91
2023-03-25T17:46:42.901Z,99411.25
2023-03-25T17:49:18.257Z,99402.50
2023-03-25T17:51:46.569Z,99391.34
2023-03-25T17:54:14.643Z,99389.69
2023-03-25T17:56:41.966Z,99399.97
2023-03-25T17:59:19.235Z,99389.59
2023-03-25T18:01:47.640Z,99390.75
2023-03-25T18:04:15.501Z,99387.94
2023-03-25T18:06:43.094Z,99383.16
2023-03-25T18:09:21.996Z,99387.84
2023-03-25T18:11:54.545Z,99385.41
2023-03-25T18:14:23.216Z,99389.28
2023-03-25T18:16:50.634Z,99384.50
2023-03-25T18:19:20.895Z,99390.31
2023-03-25T18:21:47.723Z,99389.50
2023-03-25T18:24:14.654Z,99386.75
2023-03-25T18:26:43.692Z,99384.31
2023-03-25T18:29:23.204Z,99379.53
2023-03-25T18:31:50.999Z,99377.44
2023-03-25T18:34:18.733Z,99391.19
2023-03-25T18:36:45.611Z,99388.75
2023-03-25T18:39:15.126Z,99387.47
2023-03-25T18:41:42.429Z,99392.53
2023-03-25T18:44:09.632Z,99382.25
2023-03-25T18:46:36.914Z,99386.56
2023-03-25T18:49:06.885Z,99377.41
2023-03-25T18:51:33.600Z,99385.31
2023-03-25T18:54:00.415Z,99391.97
2023-03-25T18:56:27.072Z,99391.47
2023-03-25T18:58:53.750Z,99389.03
2023-03-25T19:01:21.821Z,99388.16
2023-03-25T19:03:50.535Z,99384.88
2023-03-25T19:06:18.952Z,99389.56
2023-03-25T19:08:47.228Z,99375.31
2023-03-25T19:11:21.174Z,99372.44
2023-03-25T19:13:50.385Z,99375.97
2023-03-25T19:16:17.236Z,99371.53
2023-03-25T19:18:44.028Z,99373.88
2023-03-25T19:21:15.683Z,99374.28
2023-03-25T19:23:43.129Z,99368.31
2023-03-25T19:26:09.878Z,99367.88
2023-03-25T19:28:36.576Z,99372.25
2023-03-25T19:31:04.115Z,99371.06
2023-03-25T19:33:31.802Z,99365.53
2023-03-25T19:36:01.690Z,99364.69
2023-03-25T19:38:29.867Z,99366.97
2023-03-25T19:41:06.737Z,99378.72
2023-03-25T19:43:33.833Z,99365.66
2023-03-25T19:46:00.950Z,99365.22
2023-03-25T19:48:29.755Z,99363.56
2023-03-25T19:50:57.036Z,99366.25
2023-03-25T19:53:25.488Z,99369.78
2023-03-25T19:55:52.830Z,99370.53
2023-03-25T19:58:21.687Z,99367.31
2023-03-25T20:00:48.881Z,99370.47
2023-03-25T20:03:15.724Z,99367.28
2023-03-25T20:05:42.838Z,99361.69
2023-03-25T20:08:09.717Z,99357.69
2023-03-25T20:10:38.781Z,99358.09
2023-03-25T20:13:05.784Z,99363.59
2023-03-25T20:15:32.922Z,99365.91
2023-03-25T20:17:59.703Z,99363.91
2023-03-25T20:20:26.473Z,99361.16
2023-03-25T20:22:53.185Z,99356.00
2023-03-25T20:25:20.065Z,99355.19
2023-03-25T20:27:47.404Z,99358.69
2023-03-25T20:30:17.787Z,99352.31
2023-03-25T20:32:46.522Z,99359.00
2023-03-25T20:35:16.011Z,99352.63
2023-03-25T20:37:44.453Z,99352.94
2023-03-25T20:40:15.522Z,99350.91
2023-03-25T20:42:44.238Z,99348.88
2023-03-25T20:45:13.969Z,99353.97
2023-03-25T20:47:41.909Z,99346.84
2023-03-25T20:50:11.452Z,99351.53
2023-03-25T20:52:38.251Z,99347.88
2023-03-25T20:55:06.156Z,99342.75
2023-03-25T20:57:33.315Z,99339.09
2023-03-25T20:59:59.972Z,99339.06
2023-03-25T21:02:27.091Z,99341.38
2023-03-25T21:04:56.927Z,99331.09
2023-03-25T21:07:27.846Z,99318.75
2023-03-25T21:09:55.010Z,99325.81
2023-03-25T21:12:29.744Z,99326.16
2023-03-25T21:14:59.807Z,99319.41
2023-03-25T21:17:27.932Z,99318.19
2023-03-25T21:19:54.908Z,99321.31
2023-03-25T21:22:22.722Z,99321.66
2023-03-25T21:24:50.575Z,99314.50
2023-03-25T21:27:17.767Z,99313.63
2023-03-25T21:29:46.043Z,99315.94
2023-03-25T21:32:13.928Z,99313.56
2023-03-25T21:34:40.786Z,99315.94
2023-03-25T21:37:07.476Z,99305.28
2023-03-25T21:39:34.289Z,99315.91
2023-03-25T21:42:09.870Z,99307.16
2023-03-25T21:44:37.732Z,99310.69
2023-03-25T21:47:08.677Z,99310.28
2023-03-25T21:49:35.581Z,99316.88
2023-03-25T21:52:02.315Z,99306.22
2023-03-25T21:54:30.490Z,99313.25
2023-03-25T21:56:57.199Z,99308.53
2023-03-25T21:59:23.933Z,99312.47
2023-03-25T22:01:52.811Z,99313.63
2023-03-25T22:04:19.839Z,99312.81
2023-03-25T22:06:46.553Z,99306.44
2023-03-25T22:09:13.258Z,99303.69
2023-03-25T22:11:40.037Z,99307.59
2023-03-25T22:14:07.234Z,99299.72
2023-03-25T22:16:34.065Z,99299.72
2023-03-25T22:19:00.851Z,99304.03
2023-03-25T22:21:30.244Z,99298.09
2023-03-25T22:23:59.752Z,99296.88
2023-03-25T22:26:27.906Z,99300.34
2023-03-25T22:28:56.763Z,99304.25
2023-03-25T22:31:26.120Z,99287.28
2023-03-25T22:34:02.916Z,99297.16
2023-03-25T22:36:34.038Z,99293.53
2023-03-25T22:39:01.320Z,99305.72
2023-03-25T22:41:28.096Z,99299.31
2023-03-25T22:43:55.923Z,99300.13
2023-03-25T22:46:23.368Z,99302.09
2023-03-25T22:48:50.608Z,99314.34
2023-03-25T22:51:20.342Z,99306.06
2023-03-25T22:53:47.660Z,99308.06
2023-03-25T22:56:14.671Z,99304.84
2023-03-25T22:58:41.742Z,99304.84
2023-03-25T23:01:24.442Z,99305.56
2023-03-25T23:03:51.994Z,99300.84
2023-03-25T23:06:20.415Z,99298.81
2023-03-25T23:08:47.299Z,99315.28
2023-03-25T23:11:17.433Z,99310.94
2023-03-25T23:13:47.941Z,99307.03
2023-03-25T23:16:17.635Z,99313.69
2023-03-25T23:18:45.468Z,99316.44
2023-03-25T23:21:14.795Z,99312.44
2023-03-25T23:23:53.401Z,99318.75
2023-03-25T23:26:50.327Z,99310.06
2023-03-25T23:29:18.059Z,99319.09
2023-03-25T23:31:45.353Z,99315.59
2023-03-25T23:34:15.522Z,99312.75
2023-03-25T23:36:43.380Z,99309.19
2023-03-25T23:39:13.669Z,99311.13
2023-03-25T23:41:40.430Z,99308.75
2023-03-25T23:44:07.267Z,99312.31
2023-03-25T23:46:36.554Z,99315.41
2023-03-25T23:49:03.893Z,99308.75
2023-03-25T23:51:36.778Z,99306.00
2023-03-25T23:54:06.562Z,99300.41
2023-03-25T23:56:33.571Z,99305.09
2023-03-25T23:59:01.615Z,99306.72
